sensor_id;sensor_type;location;lat;lon;timestamp;temperature;humidity
20891;DHT22;10605;52.968;8.844;2022-12-07T00:01:09;4.50;99.90
20891;DHT22;10605;52.968;8.844;2022-12-07T00:03:37;4.50;99.90
20891;DHT22;10605;52.968;8.844;2022-12-07T00:06:04;4.50;99.90
20891;DHT22;10605;52.968;8.844;2022-12-07T00:08:31;4.40;99.90
20891;DHT22;10605;52.968;8.844;2022-12-07T00:11:19;4.40;99.90
20891;DHT22;10605;52.968;8.844;2022-12-07T00:13:45;4.30;99.90
20891;DHT22;10605;52.968;8.844;2022-12-07T00:16:13;4.20;99.90
20891;DHT22;10605;52.968;8.844;2022-12-07T00:18:39;4.10;99.90
20891;DHT22;10605;52.968;8.844;2022-12-07T00:21:20;4.00;99.90
20891;DHT22;10605;52.968;8.844;2022-12-07T00:23:47;4.00;99.90
20891;DHT22;10605;52.968;8.844;2022-12-07T00:26:23;3.90;99.90
20891;DHT22;10605;52.968;8.844;2022-12-07T00:28:54;3.80;99.90
20891;DHT22;10605;52.968;8.844;2022-12-07T00:31:23;3.90;99.90
20891;DHT22;10605;52.968;8.844;2022-12-07T00:33:50;3.90;99.90
20891;DHT22;10605;52.968;8.844;2022-12-07T00:36:18;3.80;99.90
20891;DHT22;10605;52.968;8.844;2022-12-07T00:38:44;3.80;99.90
20891;DHT22;10605;52.968;8.844;2022-12-07T00:41:17;3.70;99.90
20891;DHT22;10605;52.968;8.844;2022-12-07T00:43:44;3.80;99.90
20891;DHT22;10605;52.968;8.844;2022-12-07T00:46:11;3.80;99.90
20891;DHT22;10605;52.968;8.844;2022-12-07T00:48:37;3.80;99.90
20891;DHT22;10605;52.968;8.844;2022-12-07T00:51:04;3.80;99.90
20891;DHT22;10605;52.968;8.844;2022-12-07T00:53:30;3.80;99.90
20891;DHT22;10605;52.968;8.844;2022-12-07T00:56:07;3.80;99.90
20891;DHT22;10605;52.968;8.844;2022-12-07T00:58:33;3.90;99.90
20891;DHT22;10605;52.968;8.844;2022-12-07T01:01:03;3.90;99.90
20891;DHT22;10605;52.968;8.844;2022-12-07T01:03:29;3.90;99.90
20891;DHT22;10605;52.968;8.844;2022-12-07T01:05:56;4.00;99.90
20891;DHT22;10605;52.968;8.844;2022-12-07T01:08:23;4.00;99.90
20891;DHT22;10605;52.968;8.844;2022-12-07T01:10:56;4.00;99.90
20891;DHT22;10605;52.968;8.844;2022-12-07T01:13:22;4.00;99.90
20891;DHT22;10605;52.968;8.844;2022-12-07T01:15:48;3.90;99.90
20891;DHT22;10605;52.968;8.844;2022-12-07T01:18:13;3.90;99.90
20891;DHT22;10605;52.968;8.844;2022-12-07T01:20:39;3.90;99.90
20891;DHT22;10605;52.968;8.844;2022-12-07T01:23:05;3.80;99.90
20891;DHT22;10605;52.968;8.844;2022-12-07T01:25:31;3.70;99.90
20891;DHT22;10605;52.968;8.844;2022-12-07T01:27:57;3.70;99.90
20891;DHT22;10605;52.968;8.844;2022-12-07T01:30:23;3.60;99.90
20891;DHT22;10605;52.968;8.844;2022-12-07T01:32:48;3.50;99.90
20891;DHT22;10605;52.968;8.844;2022-12-07T01:35:14;3.50;99.90
20891;DHT22;10605;52.968;8.844;2022-12-07T01:37:40;3.50;99.90
20891;DHT22;10605;52.968;8.844;2022-12-07T01:40:07;3.50;99.90
20891;DHT22;10605;52.968;8.844;2022-12-07T01:42:33;3.50;99.90
20891;DHT22;10605;52.968;8.844;2022-12-07T01:45:38;3.50;99.90
20891;DHT22;10605;52.968;8.844;2022-12-07T01:48:05;3.50;99.90
20891;DHT22;10605;52.968;8.844;2022-12-07T01:50:32;3.60;99.90
20891;DHT22;10605;52.968;8.844;2022-12-07T01:52:58;3.70;99.90
20891;DHT22;10605;52.968;8.844;2022-12-07T01:55:26;3.80;99.90
20891;DHT22;10605;52.968;8.844;2022-12-07T01:57:54;3.70;99.90
20891;DHT22;10605;52.968;8.844;2022-12-07T02:00:20;3.80;99.90
20891;DHT22;10605;52.968;8.844;2022-12-07T02:02:53;3.70;99.90
20891;DHT22;10605;52.968;8.844;2022-12-07T02:05:19;3.60;99.90
20891;DHT22;10605;52.968;8.844;2022-12-07T02:07:47;3.60;99.90
20891;DHT22;10605;52.968;8.844;2022-12-07T02:12:45;3.60;99.90
20891;DHT22;10605;52.968;8.844;2022-12-07T02:15:12;3.50;99.90
20891;DHT22;10605;52.968;8.844;2022-12-07T02:30:50;3.20;99.90
20891;DHT22;10605;52.968;8.844;2022-12-07T02:33:33;3.20;99.90
20891;DHT22;10605;52.968;8.844;2022-12-07T02:38:47;3.10;99.90
20891;DHT22;10605;52.968;8.844;2022-12-07T02:41:24;3.10;99.90
20891;DHT22;10605;52.968;8.844;2022-12-07T02:44:03;3.00;99.90
20891;DHT22;10605;52.968;8.844;2022-12-07T02:46:42;3.00;99.90
20891;DHT22;10605;52.968;8.844;2022-12-07T02:49:08;3.00;99.90
20891;DHT22;10605;52.968;8.844;2022-12-07T02:51:39;3.00;99.90
20891;DHT22;10605;52.968;8.844;2022-12-07T02:54:12;2.90;99.90
20891;DHT22;10605;52.968;8.844;2022-12-07T03:07:59;3.10;99.90
20891;DHT22;10605;52.968;8.844;2022-12-07T03:10:50;3.10;99.90
20891;DHT22;10605;52.968;8.844;2022-12-07T03:18:25;3.30;99.90
20891;DHT22;10605;52.968;8.844;2022-12-07T03:20:53;3.50;99.90
20891;DHT22;10605;52.968;8.844;2022-12-07T03:23:21;3.50;99.90
20891;DHT22;10605;52.968;8.844;2022-12-07T03:25:55;3.50;99.90
20891;DHT22;10605;52.968;8.844;2022-12-07T03:28:24;3.60;99.90
20891;DHT22;10605;52.968;8.844;2022-12-07T03:31:34;3.60;99.90
20891;DHT22;10605;52.968;8.844;2022-12-07T03:34:21;3.60;99.90
20891;DHT22;10605;52.968;8.844;2022-12-07T03:36:59;3.60;99.90
20891;DHT22;10605;52.968;8.844;2022-12-07T03:39:33;3.60;99.90
20891;DHT22;10605;52.968;8.844;2022-12-07T03:42:02;3.70;99.90
20891;DHT22;10605;52.968;8.844;2022-12-07T03:44:29;3.70;99.90
20891;DHT22;10605;52.968;8.844;2022-12-07T03:47:11;3.70;99.90
20891;DHT22;10605;52.968;8.844;2022-12-07T03:49:45;3.70;99.90
20891;DHT22;10605;52.968;8.844;2022-12-07T03:54:50;3.70;99.90
20891;DHT22;10605;52.968;8.844;2022-12-07T03:57:17;3.70;99.90
20891;DHT22;10605;52.968;8.844;2022-12-07T03:59:44;3.70;99.90
20891;DHT22;10605;52.968;8.844;2022-12-07T04:02:12;3.70;99.90
20891;DHT22;10605;52.968;8.844;2022-12-07T04:04:38;3.70;99.90
20891;DHT22;10605;52.968;8.844;2022-12-07T04:07:04;3.70;99.90
20891;DHT22;10605;52.968;8.844;2022-12-07T04:09:30;3.60;99.90
20891;DHT22;10605;52.968;8.844;2022-12-07T04:11:56;3.60;99.90
20891;DHT22;10605;52.968;8.844;2022-12-07T04:14:21;3.60;99.90
20891;DHT22;10605;52.968;8.844;2022-12-07T04:16:48;3.60;99.90
20891;DHT22;10605;52.968;8.844;2022-12-07T04:19:15;3.60;99.90
20891;DHT22;10605;52.968;8.844;2022-12-07T04:21:42;3.60;99.90
20891;DHT22;10605;52.968;8.844;2022-12-07T04:24:08;3.70;99.90
20891;DHT22;10605;52.968;8.844;2022-12-07T04:26:33;3.60;99.90
20891;DHT22;10605;52.968;8.844;2022-12-07T04:28:59;3.70;99.90
20891;DHT22;10605;52.968;8.844;2022-12-07T04:31:25;3.60;99.90
20891;DHT22;10605;52.968;8.844;2022-12-07T04:33:50;3.60;99.90
20891;DHT22;10605;52.968;8.844;2022-12-07T04:36:16;3.60;99.90
20891;DHT22;10605;52.968;8.844;2022-12-07T04:38:42;3.60;99.90
20891;DHT22;10605;52.968;8.844;2022-12-07T04:41:08;3.50;99.90
20891;DHT22;10605;52.968;8.844;2022-12-07T04:43:35;3.60;99.90
20891;DHT22;10605;52.968;8.844;2022-12-07T04:46:01;3.50;99.90
20891;DHT22;10605;52.968;8.844;2022-12-07T04:48:27;3.50;99.90
20891;DHT22;10605;52.968;8.844;2022-12-07T04:50:53;3.50;99.90
20891;DHT22;10605;52.968;8.844;2022-12-07T04:53:18;3.50;99.90
20891;DHT22;10605;52.968;8.844;2022-12-07T04:55:45;3.50;99.90
20891;DHT22;10605;52.968;8.844;2022-12-07T04:58:12;3.50;99.90
20891;DHT22;10605;52.968;8.844;2022-12-07T05:00:38;3.50;99.90
20891;DHT22;10605;52.968;8.844;2022-12-07T05:03:04;3.50;99.90
20891;DHT22;10605;52.968;8.844;2022-12-07T05:05:29;3.50;99.90
20891;DHT22;10605;52.968;8.844;2022-12-07T05:07:55;3.50;99.90
20891;DHT22;10605;52.968;8.844;2022-12-07T05:10:21;3.40;99.90
20891;DHT22;10605;52.968;8.844;2022-12-07T05:12:47;3.40;99.90
20891;DHT22;10605;52.968;8.844;2022-12-07T05:15:14;3.40;99.90
20891;DHT22;10605;52.968;8.844;2022-12-07T05:17:39;3.30;99.90
20891;DHT22;10605;52.968;8.844;2022-12-07T05:20:06;3.40;99.90
20891;DHT22;10605;52.968;8.844;2022-12-07T05:22:32;3.40;99.90
20891;DHT22;10605;52.968;8.844;2022-12-07T05:24:57;3.30;99.90
20891;DHT22;10605;52.968;8.844;2022-12-07T05:27:23;3.30;99.90
20891;DHT22;10605;52.968;8.844;2022-12-07T05:29:50;3.30;99.90
20891;DHT22;10605;52.968;8.844;2022-12-07T05:32:16;3.20;99.90
20891;DHT22;10605;52.968;8.844;2022-12-07T05:34:42;3.20;99.90
20891;DHT22;10605;52.968;8.844;2022-12-07T05:37:07;3.20;99.90
20891;DHT22;10605;52.968;8.844;2022-12-07T05:39:33;3.10;99.90
20891;DHT22;10605;52.968;8.844;2022-12-07T05:41:59;3.10;99.90
20891;DHT22;10605;52.968;8.844;2022-12-07T05:44:41;3.10;99.90
20891;DHT22;10605;52.968;8.844;2022-12-07T05:47:07;3.10;99.90
20891;DHT22;10605;52.968;8.844;2022-12-07T05:49:33;3.00;99.90
20891;DHT22;10605;52.968;8.844;2022-12-07T05:51:58;3.00;99.90
20891;DHT22;10605;52.968;8.844;2022-12-07T05:54:24;3.00;99.90
20891;DHT22;10605;52.968;8.844;2022-12-07T05:56:50;2.90;99.90
20891;DHT22;10605;52.968;8.844;2022-12-07T05:59:16;2.80;99.90
20891;DHT22;10605;52.968;8.844;2022-12-07T06:01:51;2.80;99.90
20891;DHT22;10605;52.968;8.844;2022-12-07T06:04:18;2.80;99.90
20891;DHT22;10605;52.968;8.844;2022-12-07T06:06:43;2.70;99.90
20891;DHT22;10605;52.968;8.844;2022-12-07T06:09:09;2.70;99.90
20891;DHT22;10605;52.968;8.844;2022-12-07T06:11:35;2.80;99.90
20891;DHT22;10605;52.968;8.844;2022-12-07T06:14:20;2.80;99.90
20891;DHT22;10605;52.968;8.844;2022-12-07T06:16:46;2.80;99.90
20891;DHT22;10605;52.968;8.844;2022-12-07T06:19:11;2.90;99.90
20891;DHT22;10605;52.968;8.844;2022-12-07T06:21:37;2.90;99.90
20891;DHT22;10605;52.968;8.844;2022-12-07T06:24:03;3.00;99.90
20891;DHT22;10605;52.968;8.844;2022-12-07T06:26:29;3.00;99.90
20891;DHT22;10605;52.968;8.844;2022-12-07T06:28:54;3.00;99.90
20891;DHT22;10605;52.968;8.844;2022-12-07T06:31:20;3.00;99.90
20891;DHT22;10605;52.968;8.844;2022-12-07T06:33:46;3.00;99.90
20891;DHT22;10605;52.968;8.844;2022-12-07T06:36:12;3.00;99.90
20891;DHT22;10605;52.968;8.844;2022-12-07T06:38:37;3.00;99.90
20891;DHT22;10605;52.968;8.844;2022-12-07T06:41:06;3.10;99.90
20891;DHT22;10605;52.968;8.844;2022-12-07T06:43:32;3.10;99.90
20891;DHT22;10605;52.968;8.844;2022-12-07T06:45:58;3.00;99.90
20891;DHT22;10605;52.968;8.844;2022-12-07T06:48:23;3.10;99.90
20891;DHT22;10605;52.968;8.844;2022-12-07T06:50:49;3.20;99.90
20891;DHT22;10605;52.968;8.844;2022-12-07T06:53:15;3.20;99.90
20891;DHT22;10605;52.968;8.844;2022-12-07T06:55:41;3.20;99.90
20891;DHT22;10605;52.968;8.844;2022-12-07T06:58:06;3.20;99.90
20891;DHT22;10605;52.968;8.844;2022-12-07T07:00:32;3.20;99.90
20891;DHT22;10605;52.968;8.844;2022-12-07T07:03:00;3.20;99.90
20891;DHT22;10605;52.968;8.844;2022-12-07T07:05:26;3.20;99.90
20891;DHT22;10605;52.968;8.844;2022-12-07T07:07:51;3.20;99.90
20891;DHT22;10605;52.968;8.844;2022-12-07T07:10:17;3.20;99.90
20891;DHT22;10605;52.968;8.844;2022-12-07T07:12:43;3.30;99.90
20891;DHT22;10605;52.968;8.844;2022-12-07T07:15:09;3.30;99.90
20891;DHT22;10605;52.968;8.844;2022-12-07T07:17:35;3.30;99.90
20891;DHT22;10605;52.968;8.844;2022-12-07T07:20:00;3.30;99.90
20891;DHT22;10605;52.968;8.844;2022-12-07T07:22:26;3.30;99.90
20891;DHT22;10605;52.968;8.844;2022-12-07T07:24:52;3.30;99.90
20891;DHT22;10605;52.968;8.844;2022-12-07T07:27:17;3.30;99.90
20891;DHT22;10605;52.968;8.844;2022-12-07T07:29:43;3.30;99.90
20891;DHT22;10605;52.968;8.844;2022-12-07T07:32:08;3.30;99.90
20891;DHT22;10605;52.968;8.844;2022-12-07T07:34:34;3.30;99.90
20891;DHT22;10605;52.968;8.844;2022-12-07T07:37:00;3.30;99.90
20891;DHT22;10605;52.968;8.844;2022-12-07T07:39:25;3.30;99.90
20891;DHT22;10605;52.968;8.844;2022-12-07T07:41:51;3.40;99.90
20891;DHT22;10605;52.968;8.844;2022-12-07T07:44:17;3.40;99.90
20891;DHT22;10605;52.968;8.844;2022-12-07T07:46:42;3.40;99.90
20891;DHT22;10605;52.968;8.844;2022-12-07T07:49:09;3.40;99.90
20891;DHT22;10605;52.968;8.844;2022-12-07T07:51:36;3.50;99.90
20891;DHT22;10605;52.968;8.844;2022-12-07T07:54:03;3.60;99.90
20891;DHT22;10605;52.968;8.844;2022-12-07T07:56:28;3.50;99.90
20891;DHT22;10605;52.968;8.844;2022-12-07T07:58:54;3.40;99.90
20891;DHT22;10605;52.968;8.844;2022-12-07T08:01:20;3.40;99.90
20891;DHT22;10605;52.968;8.844;2022-12-07T08:03:49;3.40;99.90
20891;DHT22;10605;52.968;8.844;2022-12-07T08:06:15;3.40;99.90
20891;DHT22;10605;52.968;8.844;2022-12-07T08:08:40;3.40;99.90
20891;DHT22;10605;52.968;8.844;2022-12-07T08:11:08;3.40;99.90
20891;DHT22;10605;52.968;8.844;2022-12-07T08:13:35;3.50;99.90
20891;DHT22;10605;52.968;8.844;2022-12-07T08:16:05;3.60;99.90
20891;DHT22;10605;52.968;8.844;2022-12-07T08:18:36;3.70;99.90
20891;DHT22;10605;52.968;8.844;2022-12-07T08:21:04;3.80;99.90
20891;DHT22;10605;52.968;8.844;2022-12-07T08:23:30;3.90;99.90
20891;DHT22;10605;52.968;8.844;2022-12-07T08:26:01;3.90;99.90
20891;DHT22;10605;52.968;8.844;2022-12-07T08:28:28;4.00;99.90
20891;DHT22;10605;52.968;8.844;2022-12-07T08:31:02;4.10;99.90
20891;DHT22;10605;52.968;8.844;2022-12-07T08:33:31;4.20;99.90
20891;DHT22;10605;52.968;8.844;2022-12-07T08:36:05;4.20;99.90
20891;DHT22;10605;52.968;8.844;2022-12-07T08:38:31;4.20;99.90
20891;DHT22;10605;52.968;8.844;2022-12-07T08:40:57;4.20;99.90
20891;DHT22;10605;52.968;8.844;2022-12-07T08:43:24;4.40;99.90
20891;DHT22;10605;52.968;8.844;2022-12-07T08:46:15;4.30;99.90
20891;DHT22;10605;52.968;8.844;2022-12-07T08:48:49;4.20;99.90
20891;DHT22;10605;52.968;8.844;2022-12-07T08:51:15;4.10;99.90
20891;DHT22;10605;52.968;8.844;2022-12-07T08:53:42;4.10;99.90
20891;DHT22;10605;52.968;8.844;2022-12-07T08:56:09;4.10;99.90
20891;DHT22;10605;52.968;8.844;2022-12-07T08:58:36;4.10;99.90
20891;DHT22;10605;52.968;8.844;2022-12-07T09:01:02;4.00;99.90
20891;DHT22;10605;52.968;8.844;2022-12-07T09:03:28;4.00;99.90
20891;DHT22;10605;52.968;8.844;2022-12-07T09:05:54;4.00;99.90
20891;DHT22;10605;52.968;8.844;2022-12-07T09:08:21;4.10;99.90
20891;DHT22;10605;52.968;8.844;2022-12-07T09:10:48;4.20;99.90
20891;DHT22;10605;52.968;8.844;2022-12-07T09:13:14;4.30;99.90
20891;DHT22;10605;52.968;8.844;2022-12-07T09:15:39;4.20;99.90
20891;DHT22;10605;52.968;8.844;2022-12-07T09:18:05;4.20;99.90
20891;DHT22;10605;52.968;8.844;2022-12-07T09:20:31;4.20;99.90
20891;DHT22;10605;52.968;8.844;2022-12-07T09:22:56;4.20;99.90
20891;DHT22;10605;52.968;8.844;2022-12-07T09:25:22;4.30;99.90
20891;DHT22;10605;52.968;8.844;2022-12-07T09:27:48;4.60;99.90
20891;DHT22;10605;52.968;8.844;2022-12-07T09:30:20;4.70;99.90
20891;DHT22;10605;52.968;8.844;2022-12-07T09:32:45;4.80;99.90
20891;DHT22;10605;52.968;8.844;2022-12-07T09:35:11;4.60;99.90
20891;DHT22;10605;52.968;8.844;2022-12-07T09:37:36;4.70;99.90
20891;DHT22;10605;52.968;8.844;2022-12-07T09:40:03;4.60;99.90
20891;DHT22;10605;52.968;8.844;2022-12-07T09:42:34;4.80;99.90
20891;DHT22;10605;52.968;8.844;2022-12-07T09:45:06;4.80;99.90
20891;DHT22;10605;52.968;8.844;2022-12-07T09:47:33;4.90;99.90
20891;DHT22;10605;52.968;8.844;2022-12-07T09:50:16;5.00;99.90
20891;DHT22;10605;52.968;8.844;2022-12-07T09:52:45;4.80;99.90
20891;DHT22;10605;52.968;8.844;2022-12-07T09:55:14;5.10;99.90
20891;DHT22;10605;52.968;8.844;2022-12-07T09:57:41;5.40;99.90
20891;DHT22;10605;52.968;8.844;2022-12-07T10:00:14;5.80;99.90
20891;DHT22;10605;52.968;8.844;2022-12-07T10:02:41;6.30;99.90
20891;DHT22;10605;52.968;8.844;2022-12-07T10:05:14;6.00;99.90
20891;DHT22;10605;52.968;8.844;2022-12-07T10:07:41;5.60;99.90
20891;DHT22;10605;52.968;8.844;2022-12-07T10:10:17;5.20;99.90
20891;DHT22;10605;52.968;8.844;2022-12-07T10:13:07;5.00;99.90
20891;DHT22;10605;52.968;8.844;2022-12-07T10:18:35;5.40;99.90
20891;DHT22;10605;52.968;8.844;2022-12-07T10:21:13;5.60;99.90
20891;DHT22;10605;52.968;8.844;2022-12-07T10:24:03;5.40;99.90
20891;DHT22;10605;52.968;8.844;2022-12-07T10:26:33;5.60;99.90
20891;DHT22;10605;52.968;8.844;2022-12-07T10:29:04;6.10;99.90
20891;DHT22;10605;52.968;8.844;2022-12-07T10:31:39;5.90;99.90
20891;DHT22;10605;52.968;8.844;2022-12-07T10:34:29;5.90;99.90
20891;DHT22;10605;52.968;8.844;2022-12-07T10:37:19;5.60;99.90
20891;DHT22;10605;52.968;8.844;2022-12-07T10:39:55;5.40;99.90
20891;DHT22;10605;52.968;8.844;2022-12-07T10:42:24;5.40;99.90
20891;DHT22;10605;52.968;8.844;2022-12-07T10:45:12;5.40;99.90
20891;DHT22;10605;52.968;8.844;2022-12-07T10:47:47;5.50;99.90
20891;DHT22;10605;52.968;8.844;2022-12-07T10:58:32;5.70;99.90
20891;DHT22;10605;52.968;8.844;2022-12-07T11:06:37;5.50;99.90
20891;DHT22;10605;52.968;8.844;2022-12-07T11:09:37;5.60;99.90
20891;DHT22;10605;52.968;8.844;2022-12-07T11:15:21;5.70;99.90
20891;DHT22;10605;52.968;8.844;2022-12-07T11:32:02;6.00;99.90
20891;DHT22;10605;52.968;8.844;2022-12-07T11:37:21;6.00;99.90
20891;DHT22;10605;52.968;8.844;2022-12-07T11:42:45;6.00;99.90
20891;DHT22;10605;52.968;8.844;2022-12-07T11:45:18;5.90;99.90
20891;DHT22;10605;52.968;8.844;2022-12-07T11:50:21;5.90;99.90
20891;DHT22;10605;52.968;8.844;2022-12-07T11:53:00;5.90;99.90
20891;DHT22;10605;52.968;8.844;2022-12-07T11:55:45;6.10;99.90
20891;DHT22;10605;52.968;8.844;2022-12-07T12:00:41;6.60;99.90
20891;DHT22;10605;52.968;8.844;2022-12-07T12:03:15;6.70;99.90
20891;DHT22;10605;52.968;8.844;2022-12-07T12:05:45;6.80;99.90
20891;DHT22;10605;52.968;8.844;2022-12-07T12:08:18;6.90;99.90
20891;DHT22;10605;52.968;8.844;2022-12-07T12:13:40;7.00;99.90
20891;DHT22;10605;52.968;8.844;2022-12-07T12:25:27;6.90;99.90
20891;DHT22;10605;52.968;8.844;2022-12-07T12:27:56;7.00;99.90
20891;DHT22;10605;52.968;8.844;2022-12-07T12:30:38;7.30;99.90
20891;DHT22;10605;52.968;8.844;2022-12-07T12:36:20;7.60;99.90
20891;DHT22;10605;52.968;8.844;2022-12-07T12:51:57;7.10;99.90
20891;DHT22;10605;52.968;8.844;2022-12-07T12:54:29;6.90;99.90
20891;DHT22;10605;52.968;8.844;2022-12-07T12:57:09;6.90;99.90
20891;DHT22;10605;52.968;8.844;2022-12-07T13:00:21;6.70;99.90
20891;DHT22;10605;52.968;8.844;2022-12-07T13:02:53;6.70;99.90
20891;DHT22;10605;52.968;8.844;2022-12-07T13:05:23;6.50;99.90
20891;DHT22;10605;52.968;8.844;2022-12-07T13:10:49;6.40;99.90
20891;DHT22;10605;52.968;8.844;2022-12-07T13:15:48;6.70;99.90
20891;DHT22;10605;52.968;8.844;2022-12-07T13:23:40;6.60;99.90
20891;DHT22;10605;52.968;8.844;2022-12-07T13:28:46;6.50;99.90
20891;DHT22;10605;52.968;8.844;2022-12-07T13:31:40;6.30;99.90
20891;DHT22;10605;52.968;8.844;2022-12-07T13:34:32;6.40;99.90
20891;DHT22;10605;52.968;8.844;2022-12-07T13:37:12;6.70;99.90
20891;DHT22;10605;52.968;8.844;2022-12-07T13:39:47;6.80;99.90
20891;DHT22;10605;52.968;8.844;2022-12-07T13:42:29;6.90;99.90
20891;DHT22;10605;52.968;8.844;2022-12-07T13:45:31;6.80;99.90
20891;DHT22;10605;52.968;8.844;2022-12-07T13:48:48;6.70;99.90
20891;DHT22;10605;52.968;8.844;2022-12-07T13:51:25;6.50;99.90
20891;DHT22;10605;52.968;8.844;2022-12-07T13:53:55;6.30;99.90
20891;DHT22;10605;52.968;8.844;2022-12-07T13:56:22;6.20;99.90
20891;DHT22;10605;52.968;8.844;2022-12-07T13:58:51;6.00;99.90
20891;DHT22;10605;52.968;8.844;2022-12-07T14:01:17;5.80;99.90
20891;DHT22;10605;52.968;8.844;2022-12-07T14:03:43;5.50;99.90
20891;DHT22;10605;52.968;8.844;2022-12-07T14:06:16;5.30;99.90
20891;DHT22;10605;52.968;8.844;2022-12-07T14:08:43;5.20;99.90
20891;DHT22;10605;52.968;8.844;2022-12-07T14:11:16;5.10;99.90
20891;DHT22;10605;52.968;8.844;2022-12-07T14:16:33;5.00;99.90
20891;DHT22;10605;52.968;8.844;2022-12-07T14:19:02;4.90;99.90
20891;DHT22;10605;52.968;8.844;2022-12-07T14:21:31;4.90;99.90
20891;DHT22;10605;52.968;8.844;2022-12-07T14:24:14;4.80;99.90
20891;DHT22;10605;52.968;8.844;2022-12-07T14:26:41;4.80;99.90
20891;DHT22;10605;52.968;8.844;2022-12-07T14:31:48;4.70;99.90
20891;DHT22;10605;52.968;8.844;2022-12-07T14:34:14;4.60;99.90
20891;DHT22;10605;52.968;8.844;2022-12-07T14:36:40;4.60;99.90
20891;DHT22;10605;52.968;8.844;2022-12-07T14:39:05;4.50;99.90
20891;DHT22;10605;52.968;8.844;2022-12-07T14:41:31;4.50;99.90
20891;DHT22;10605;52.968;8.844;2022-12-07T14:44:15;4.50;99.90
20891;DHT22;10605;52.968;8.844;2022-12-07T14:46:41;4.40;99.90
20891;DHT22;10605;52.968;8.844;2022-12-07T14:49:07;4.40;99.90
20891;DHT22;10605;52.968;8.844;2022-12-07T14:51:33;4.30;99.90
20891;DHT22;10605;52.968;8.844;2022-12-07T14:54:01;4.30;99.90
20891;DHT22;10605;52.968;8.844;2022-12-07T14:56:27;4.30;99.90
20891;DHT22;10605;52.968;8.844;2022-12-07T14:58:53;4.30;99.90
20891;DHT22;10605;52.968;8.844;2022-12-07T15:01:19;4.20;99.90
20891;DHT22;10605;52.968;8.844;2022-12-07T15:03:44;4.20;99.90
20891;DHT22;10605;52.968;8.844;2022-12-07T15:06:14;4.10;99.90
20891;DHT22;10605;52.968;8.844;2022-12-07T15:08:40;4.10;99.90
20891;DHT22;10605;52.968;8.844;2022-12-07T15:11:08;4.10;99.90
20891;DHT22;10605;52.968;8.844;2022-12-07T15:13:34;4.10;99.90
20891;DHT22;10605;52.968;8.844;2022-12-07T15:16:20;4.00;99.90
20891;DHT22;10605;52.968;8.844;2022-12-07T15:18:46;4.00;99.90
20891;DHT22;10605;52.968;8.844;2022-12-07T15:21:15;4.00;99.90
20891;DHT22;10605;52.968;8.844;2022-12-07T15:23:42;3.90;99.90
20891;DHT22;10605;52.968;8.844;2022-12-07T15:26:09;3.90;99.90
20891;DHT22;10605;52.968;8.844;2022-12-07T15:28:35;3.90;99.90
20891;DHT22;10605;52.968;8.844;2022-12-07T15:31:01;3.80;99.90
20891;DHT22;10605;52.968;8.844;2022-12-07T15:33:26;3.70;99.90
20891;DHT22;10605;52.968;8.844;2022-12-07T15:35:52;3.70;99.90
20891;DHT22;10605;52.968;8.844;2022-12-07T15:38:17;3.70;99.90
20891;DHT22;10605;52.968;8.844;2022-12-07T15:40:46;3.70;99.90
20891;DHT22;10605;52.968;8.844;2022-12-07T15:43:12;3.60;99.90
20891;DHT22;10605;52.968;8.844;2022-12-07T15:45:57;3.50;99.90
20891;DHT22;10605;52.968;8.844;2022-12-07T15:48:23;3.50;99.90
20891;DHT22;10605;52.968;8.844;2022-12-07T15:50:48;3.40;99.90
20891;DHT22;10605;52.968;8.844;2022-12-07T15:53:14;3.40;99.90
20891;DHT22;10605;52.968;8.844;2022-12-07T15:55:40;3.20;99.90
20891;DHT22;10605;52.968;8.844;2022-12-07T15:58:06;3.20;99.90
20891;DHT22;10605;52.968;8.844;2022-12-07T16:00:32;3.10;99.90
20891;DHT22;10605;52.968;8.844;2022-12-07T16:02:58;3.20;99.90
20891;DHT22;10605;52.968;8.844;2022-12-07T16:05:24;3.10;99.90
20891;DHT22;10605;52.968;8.844;2022-12-07T16:07:50;3.00;99.90
20891;DHT22;10605;52.968;8.844;2022-12-07T16:10:16;2.90;99.90
20891;DHT22;10605;52.968;8.844;2022-12-07T16:12:41;2.90;99.90
20891;DHT22;10605;52.968;8.844;2022-12-07T16:15:07;2.90;99.90
20891;DHT22;10605;52.968;8.844;2022-12-07T16:17:33;2.90;99.90
20891;DHT22;10605;52.968;8.844;2022-12-07T16:19:59;2.90;99.90
20891;DHT22;10605;52.968;8.844;2022-12-07T16:22:25;2.90;99.90
20891;DHT22;10605;52.968;8.844;2022-12-07T16:24:50;2.90;99.90
20891;DHT22;10605;52.968;8.844;2022-12-07T16:27:16;2.80;99.90
20891;DHT22;10605;52.968;8.844;2022-12-07T16:29:42;2.80;99.90
20891;DHT22;10605;52.968;8.844;2022-12-07T16:32:07;2.80;99.90
20891;DHT22;10605;52.968;8.844;2022-12-07T16:34:33;2.80;99.90
20891;DHT22;10605;52.968;8.844;2022-12-07T16:36:59;2.80;99.90
20891;DHT22;10605;52.968;8.844;2022-12-07T16:39:25;2.80;99.90
20891;DHT22;10605;52.968;8.844;2022-12-07T16:41:50;2.70;99.90
20891;DHT22;10605;52.968;8.844;2022-12-07T16:44:18;2.70;99.90
20891;DHT22;10605;52.968;8.844;2022-12-07T16:46:46;2.70;99.90
20891;DHT22;10605;52.968;8.844;2022-12-07T16:49:13;2.70;99.90
20891;DHT22;10605;52.968;8.844;2022-12-07T16:51:39;2.70;99.90
20891;DHT22;10605;52.968;8.844;2022-12-07T16:54:05;2.80;99.90
20891;DHT22;10605;52.968;8.844;2022-12-07T16:56:31;2.90;99.90
20891;DHT22;10605;52.968;8.844;2022-12-07T16:59:00;2.90;99.90
20891;DHT22;10605;52.968;8.844;2022-12-07T17:01:26;3.00;99.90
20891;DHT22;10605;52.968;8.844;2022-12-07T17:03:57;3.10;99.90
20891;DHT22;10605;52.968;8.844;2022-12-07T17:06:24;3.20;99.90
20891;DHT22;10605;52.968;8.844;2022-12-07T17:08:51;3.20;99.90
20891;DHT22;10605;52.968;8.844;2022-12-07T17:11:21;3.20;99.90
20891;DHT22;10605;52.968;8.844;2022-12-07T17:13:47;3.30;99.90
20891;DHT22;10605;52.968;8.844;2022-12-07T17:16:32;3.30;99.90
20891;DHT22;10605;52.968;8.844;2022-12-07T17:18:59;3.40;99.90
20891;DHT22;10605;52.968;8.844;2022-12-07T17:21:25;3.40;99.90
20891;DHT22;10605;52.968;8.844;2022-12-07T17:23:51;3.40;99.90
20891;DHT22;10605;52.968;8.844;2022-12-07T17:26:24;3.40;99.90
20891;DHT22;10605;52.968;8.844;2022-12-07T17:28:50;3.40;99.90
20891;DHT22;10605;52.968;8.844;2022-12-07T17:31:18;3.40;99.90
20891;DHT22;10605;52.968;8.844;2022-12-07T17:33:44;3.40;99.90
20891;DHT22;10605;52.968;8.844;2022-12-07T17:38:46;3.40;99.90
20891;DHT22;10605;52.968;8.844;2022-12-07T17:41:21;3.40;99.90
20891;DHT22;10605;52.968;8.844;2022-12-07T17:44:08;3.40;99.90
20891;DHT22;10605;52.968;8.844;2022-12-07T17:46:35;3.40;99.90
20891;DHT22;10605;52.968;8.844;2022-12-07T17:49:01;3.40;99.90
20891;DHT22;10605;52.968;8.844;2022-12-07T17:51:27;3.40;99.90
20891;DHT22;10605;52.968;8.844;2022-12-07T17:54:12;3.30;99.90
20891;DHT22;10605;52.968;8.844;2022-12-07T17:56:38;3.40;99.90
20891;DHT22;10605;52.968;8.844;2022-12-07T17:59:04;3.40;99.90
20891;DHT22;10605;52.968;8.844;2022-12-07T18:01:30;3.40;99.90
20891;DHT22;10605;52.968;8.844;2022-12-07T18:03:56;3.50;99.90
20891;DHT22;10605;52.968;8.844;2022-12-07T18:06:22;3.40;99.90
20891;DHT22;10605;52.968;8.844;2022-12-07T18:08:48;3.40;99.90
20891;DHT22;10605;52.968;8.844;2022-12-07T18:11:14;3.40;99.90